createdAt,value
2018-04-15T04:08:48.780Z,10.99
2018-04-15T04:09:14.259Z,11.04
2018-04-15T04:09:39.753Z,10.99
2018-04-15T04:10:05.244Z,10.96
2018-04-15T04:10:30.740Z,10.99
2018-04-15T04:10:56.231Z,11.05
2018-04-15T04:11:21.728Z,11.07
2018-04-15T04:11:47.228Z,10.99
2018-04-15T04:12:12.725Z,11
2018-04-15T04:12:38.212Z,11.07
2018-04-15T04:13:03.716Z,10.97
2018-04-15T04:13:29.179Z,11.07
2018-04-15T04:13:54.642Z,11
2018-04-15T04:14:20.144Z,10.96
2018-04-15T04:14:45.624Z,10.96
2018-04-15T04:15:11.087Z,10.96
2018-04-15T04:15:36.588Z,10.99
2018-04-15T04:16:02.072Z,10.93
2018-04-15T04:16:27.576Z,10.92
2018-04-15T04:16:53.067Z,10.93
2018-04-15T04:17:18.573Z,10.99
2018-04-15T04:17:44.070Z,10.93
2018-04-15T04:18:09.558Z,10.92
2018-04-15T04:18:35.047Z,10.94
2018-04-15T04:19:00.561Z,10.9
2018-04-15T04:19:26.047Z,10.93
2018-04-15T04:19:51.531Z,10.92
2018-04-15T04:20:17.034Z,10.87
2018-04-15T04:20:42.536Z,10.81
2018-04-15T04:21:08.003Z,10.81
2018-04-15T04:21:33.464Z,10.86
2018-04-15T04:21:58.993Z,10.79
2018-04-15T04:22:24.468Z,10.89
2018-04-15T04:22:49.979Z,10.78
2018-04-15T04:23:15.456Z,10.89
2018-04-15T04:23:40.932Z,10.87
2018-04-15T04:24:06.404Z,10.84
2018-04-15T04:24:31.869Z,10.84
2018-04-15T04:24:57.383Z,10.87
2018-04-15T04:25:22.872Z,10.92
2018-04-15T04:25:48.357Z,10.84
2018-04-15T04:26:13.863Z,10.89
2018-04-15T04:26:39.361Z,10.86
2018-04-15T04:27:04.845Z,10.76
2018-04-15T04:27:30.343Z,10.93
2018-04-15T04:27:55.835Z,10.87
2018-04-15T04:28:21.318Z,10.86
2018-04-15T04:28:46.790Z,10.86
2018-04-15T04:29:12.254Z,10.78
2018-04-15T04:29:37.770Z,10.79
2018-04-15T04:30:03.266Z,10.89
2018-04-15T04:30:28.744Z,10.9
2018-04-15T04:30:54.232Z,10.78
2018-04-15T04:31:19.693Z,10.87
2018-04-15T04:31:45.174Z,10.82
2018-04-15T04:32:10.641Z,10.79
2018-04-15T04:32:36.131Z,10.9
2018-04-15T04:33:01.614Z,10.74
2018-04-15T04:33:27.157Z,10.82
2018-04-15T04:33:52.630Z,10.76
2018-04-15T04:34:18.127Z,10.84
2018-04-15T04:34:43.628Z,10.84
2018-04-15T04:35:09.118Z,10.84
2018-04-15T04:35:34.609Z,10.87
2018-04-15T04:36:00.123Z,10.84
2018-04-15T04:36:25.591Z,10.74
2018-04-15T04:36:51.074Z,10.72
2018-04-15T04:37:49.114Z,10.79
2018-04-15T04:38:14.600Z,10.74
2018-04-15T04:38:40.095Z,10.72
2018-04-15T04:39:05.589Z,10.72
2018-04-15T04:39:31.049Z,10.67
2018-04-15T04:39:56.559Z,10.63
2018-04-15T04:40:22.055Z,10.67
2018-04-15T04:40:47.533Z,10.74
2018-04-15T04:41:12.989Z,10.68
2018-04-15T04:41:38.508Z,10.61
2018-04-15T04:42:04.041Z,10.71
2018-04-15T04:42:29.539Z,10.63
2018-04-15T04:42:55.040Z,10.68
2018-04-15T04:43:20.518Z,10.64
2018-04-15T04:43:46.004Z,10.61
2018-04-15T04:44:11.483Z,10.63
2018-04-15T04:44:36.956Z,10.64
2018-04-15T04:45:02.536Z,10.59
2018-04-15T04:45:27.952Z,10.61
2018-04-15T04:45:53.424Z,10.63
2018-04-15T04:46:18.926Z,10.6
2018-04-15T04:46:44.419Z,10.64
2018-04-15T04:47:09.917Z,10.59
2018-04-15T04:47:35.427Z,10.61
2018-04-15T04:48:00.899Z,10.63
2018-04-15T04:48:26.401Z,10.64
2018-04-15T04:48:51.869Z,10.6
2018-04-15T04:49:17.370Z,10.61
2018-04-15T04:49:42.865Z,10.63
2018-04-15T04:50:08.362Z,10.59
2018-04-15T04:50:33.857Z,10.54
2018-04-15T04:50:59.366Z,10.59
2018-04-15T04:51:24.858Z,10.56
2018-04-15T04:51:50.336Z,10.54
2018-04-15T04:52:15.826Z,10.49
2018-04-15T04:52:41.346Z,10.57
2018-04-15T04:53:06.816Z,10.63
2018-04-15T04:53:32.319Z,10.51
2018-04-15T04:53:57.813Z,10.63
2018-04-15T04:54:23.339Z,10.61
2018-04-15T04:54:48.838Z,10.53
2018-04-15T04:55:14.345Z,10.59
2018-04-15T04:55:39.841Z,10.56
2018-04-15T04:56:05.321Z,10.61
2018-04-15T04:56:30.795Z,10.63
2018-04-15T04:56:56.288Z,10.63
2018-04-15T04:57:21.808Z,10.57
2018-04-15T04:57:47.309Z,10.59
2018-04-15T04:58:12.799Z,10.63
2018-04-15T04:58:38.284Z,10.67
2018-04-15T04:59:03.781Z,10.6
2018-04-15T04:59:29.274Z,10.6
2018-04-15T04:59:54.751Z,10.64
2018-04-15T05:00:20.219Z,10.64
2018-04-15T05:00:45.727Z,10.68
2018-04-15T05:01:11.245Z,10.67
2018-04-15T05:01:36.729Z,10.63
2018-04-15T05:02:02.225Z,10.68
2018-04-15T05:02:27.737Z,10.61
2018-04-15T05:02:53.237Z,10.71
2018-04-15T05:03:18.714Z,10.61
2018-04-15T05:03:44.227Z,10.64
2018-04-15T05:04:09.739Z,10.67
2018-04-15T05:04:35.216Z,10.75
2018-04-15T05:05:00.677Z,10.67
2018-04-15T05:05:26.170Z,10.68
2018-04-15T05:05:51.645Z,10.63
2018-04-15T05:06:17.143Z,10.64
2018-04-15T05:06:42.643Z,10.71
2018-04-15T05:07:08.110Z,10.74
2018-04-15T05:08:06.125Z,10.63
2018-04-15T05:08:31.628Z,10.69
2018-04-15T05:08:57.128Z,10.71
2018-04-15T05:09:22.620Z,10.71
2018-04-15T05:09:48.134Z,10.74
2018-04-15T05:10:13.633Z,10.74
2018-04-15T05:10:39.084Z,10.69
2018-04-15T05:11:04.594Z,10.69
2018-04-15T05:11:30.073Z,10.68
2018-04-15T05:11:55.572Z,10.72
2018-04-15T05:12:21.067Z,10.74
2018-04-15T05:12:46.577Z,10.75
2018-04-15T05:13:12.070Z,10.69
2018-04-15T05:13:37.575Z,10.74
2018-04-15T05:14:03.055Z,10.79
2018-04-15T05:14:28.544Z,10.76
2018-04-15T05:14:54.040Z,10.69
2018-04-15T05:15:19.512Z,10.71
2018-04-15T05:15:45.007Z,10.69
2018-04-15T05:16:10.509Z,10.72
2018-04-15T05:16:36.004Z,10.78
2018-04-15T05:17:01.485Z,10.76
2018-04-15T05:17:27.007Z,10.75
2018-04-15T05:18:25.034Z,10.72
2018-04-15T05:18:50.576Z,10.71
2018-04-15T05:19:16.028Z,10.71
2018-04-15T05:19:41.528Z,10.74
2018-04-15T05:20:07.029Z,10.74
2018-04-15T05:20:32.541Z,10.72
2018-04-15T05:20:58.024Z,10.75
2018-04-15T05:21:23.515Z,10.76
2018-04-15T05:21:49.021Z,10.76
2018-04-15T05:22:14.518Z,10.75
2018-04-15T05:22:39.999Z,10.75
2018-04-15T05:23:05.472Z,10.74
2018-04-15T05:23:30.964Z,10.78
2018-04-15T05:23:56.463Z,10.78
2018-04-15T05:24:21.975Z,10.78
2018-04-15T05:24:47.438Z,10.81
2018-04-15T05:25:12.927Z,10.75
2018-04-15T05:25:38.423Z,10.78
2018-04-15T05:26:03.896Z,10.74
2018-04-15T05:26:29.389Z,10.79
2018-04-15T05:26:54.913Z,10.76
2018-04-15T05:27:20.397Z,10.78
2018-04-15T05:27:45.904Z,10.75
2018-04-15T05:28:11.371Z,10.78
2018-04-15T05:28:36.884Z,10.67
2018-04-15T05:29:02.366Z,10.75
2018-04-15T05:29:27.847Z,10.76
2018-04-15T05:29:53.343Z,10.78
2018-04-15T05:30:18.829Z,10.76
2018-04-15T05:30:44.324Z,10.71
2018-04-15T05:31:09.829Z,10.74
2018-04-15T05:31:35.320Z,10.76
2018-04-15T05:32:00.813Z,10.75
2018-04-15T05:32:26.307Z,10.68
2018-04-15T05:32:51.785Z,10.71
2018-04-15T05:33:17.281Z,10.68
2018-04-15T05:33:42.757Z,10.75
2018-04-15T05:34:08.251Z,10.69
2018-04-15T05:34:33.743Z,10.71
2018-04-15T05:34:59.219Z,10.67
2018-04-15T05:35:24.704Z,10.69
2018-04-15T05:35:50.177Z,10.69
2018-04-15T05:36:15.649Z,10.71
2018-04-15T05:36:41.170Z,10.68
2018-04-15T05:37:06.662Z,10.69
2018-04-15T05:37:32.231Z,10.68
2018-04-15T05:37:57.684Z,10.69
2018-04-15T05:38:23.181Z,10.78
2018-04-15T05:38:48.648Z,10.72
2018-04-15T05:39:14.137Z,10.74
2018-04-15T05:39:39.623Z,10.68
2018-04-15T05:40:05.123Z,10.67
2018-04-15T05:40:30.636Z,10.75
2018-04-15T05:40:56.088Z,10.68
2018-04-15T05:41:21.573Z,10.69
2018-04-15T05:41:47.077Z,10.71
2018-04-15T05:42:12.563Z,10.69
2018-04-15T05:42:38.039Z,10.67
2018-04-15T05:43:03.575Z,10.68
2018-04-15T05:43:29.066Z,10.72
2018-04-15T05:43:54.585Z,10.64
2018-04-15T05:44:20.117Z,10.75
2018-04-15T05:44:45.591Z,10.69
2018-04-15T05:45:11.093Z,10.69
2018-04-15T05:45:36.591Z,10.68
2018-04-15T05:46:02.087Z,10.72
2018-04-15T05:46:27.579Z,10.68
2018-04-15T05:46:53.080Z,10.64
2018-04-15T05:47:18.558Z,10.72
2018-04-15T05:47:44.055Z,10.69
2018-04-15T05:48:09.575Z,10.71
2018-04-15T05:48:35.080Z,10.67
2018-04-15T05:49:00.597Z,10.74
2018-04-15T05:49:26.099Z,10.69
2018-04-15T05:49:51.610Z,10.75
2018-04-15T05:50:17.102Z,10.76
2018-04-15T05:50:42.566Z,10.78
2018-04-15T05:51:08.075Z,10.81
2018-04-15T05:51:33.562Z,10.76
2018-04-15T05:51:59.053Z,10.75
2018-04-15T05:52:24.523Z,10.75
2018-04-15T05:52:50.010Z,10.72
2018-04-15T05:53:15.502Z,10.75
2018-04-15T05:53:40.991Z,10.74
2018-04-15T05:54:06.482Z,10.71
2018-04-15T05:54:31.996Z,10.74
2018-04-15T05:54:57.483Z,10.76
2018-04-15T05:55:22.937Z,10.75
2018-04-15T05:55:48.430Z,10.78
2018-04-15T05:56:13.911Z,10.76
2018-04-15T05:56:39.417Z,10.81
2018-04-15T05:57:04.923Z,10.79
2018-04-15T05:57:30.436Z,10.76
2018-04-15T05:57:55.947Z,10.75
2018-04-15T05:58:21.443Z,10.76
2018-04-15T05:58:46.911Z,10.79
2018-04-15T05:59:55.081Z,10.84
2018-04-15T06:00:20.575Z,10.78
2018-04-15T06:00:46.062Z,10.86
2018-04-15T06:01:11.569Z,10.92
2018-04-15T06:01:37.080Z,10.89
2018-04-15T06:02:02.563Z,10.86
2018-04-15T06:02:28.059Z,10.78
2018-04-15T06:02:53.569Z,10.84
2018-04-15T06:03:19.034Z,10.86
2018-04-15T06:03:44.545Z,10.87
2018-04-15T06:04:10.021Z,10.9
2018-04-15T06:04:35.501Z,10.92
2018-04-15T06:05:01.032Z,10.89
2018-04-15T06:05:26.528Z,10.94
2018-04-15T06:05:52.039Z,10.92
2018-04-15T06:06:17.543Z,10.93
2018-04-15T06:06:43.018Z,10.96
2018-04-15T06:07:08.504Z,10.93
2018-04-15T06:07:34.004Z,10.94
2018-04-15T06:07:59.491Z,10.93
2018-04-15T06:08:24.953Z,10.9
2018-04-15T06:08:50.465Z,10.94
2018-04-15T06:09:15.959Z,10.89
2018-04-15T06:10:25.168Z,10.93
2018-04-15T06:10:50.666Z,10.9
2018-04-15T06:11:16.144Z,10.89
2018-04-15T06:11:41.626Z,10.89
2018-04-15T06:12:07.128Z,10.9
2018-04-15T06:12:32.602Z,11.04
2018-04-15T06:12:58.105Z,10.93
2018-04-15T06:13:23.595Z,10.93
2018-04-15T06:13:49.089Z,11.04
2018-04-15T06:14:14.584Z,10.99
2018-04-15T06:14:40.090Z,10.99
2018-04-15T06:15:05.612Z,10.99
2018-04-15T06:15:31.121Z,11.05
2018-04-15T06:15:56.608Z,11.05
2018-04-15T06:16:22.121Z,10.96
2018-04-15T06:16:47.626Z,11.07
2018-04-15T06:17:13.136Z,10.99
2018-04-15T06:17:38.618Z,11.04
2018-04-15T06:18:04.119Z,11.04
2018-04-15T06:18:29.624Z,10.99
2018-04-15T06:18:55.260Z,11.02
2018-04-15T06:19:20.747Z,11.07
2018-04-15T06:19:46.211Z,11.02
2018-04-15T06:20:34.533Z,11.04
2018-04-15T06:21:00.017Z,10.99
2018-04-15T06:21:25.521Z,11
2018-04-15T06:21:51.025Z,11.07
2018-04-15T06:22:16.503Z,11.08
2018-04-15T06:22:41.968Z,11.1
2018-04-15T06:23:07.456Z,11.12
2018-04-15T06:23:32.949Z,10.99
2018-04-15T06:23:58.453Z,11.14
2018-04-15T06:24:23.933Z,11.07
2018-04-15T06:25:32.620Z,11.15
2018-04-15T06:25:58.119Z,11.17
2018-04-15T06:26:23.617Z,11.15
2018-04-15T06:26:49.116Z,11.17
2018-04-15T06:27:14.612Z,11.19
2018-04-15T06:27:40.117Z,11.19
2018-04-15T06:28:05.599Z,11.12
2018-04-15T06:28:31.077Z,11.26
2018-04-15T06:28:56.574Z,11.12
2018-04-15T06:29:22.060Z,11.18
2018-04-15T06:29:47.569Z,11.15
2018-04-15T06:30:13.067Z,11.17
2018-04-15T06:30:38.559Z,11.18
2018-04-15T06:31:04.035Z,11.18
2018-04-15T06:31:29.544Z,11.1
2018-04-15T06:31:55.063Z,11.15
2018-04-15T06:32:20.575Z,11.18
2018-04-15T06:32:46.046Z,11.23
2018-04-15T06:33:11.515Z,11.19
2018-04-15T06:33:36.991Z,11.19
2018-04-15T06:34:02.460Z,11.12
2018-04-15T06:34:27.968Z,11.19
2018-04-15T06:34:53.444Z,11.23
2018-04-15T06:35:18.914Z,11.29
2018-04-15T06:35:44.365Z,11.18
2018-04-15T06:36:09.898Z,11.25
2018-04-15T06:36:35.376Z,11.19
2018-04-15T06:37:00.854Z,11.22
2018-04-15T06:37:26.374Z,11.22
2018-04-15T06:37:51.866Z,11.26
2018-04-15T06:38:17.339Z,11.23
2018-04-15T06:39:20.963Z,11.17
2018-04-15T06:39:46.433Z,11.35
2018-04-15T06:40:11.936Z,11.18
2018-04-15T06:40:37.417Z,11.22
2018-04-15T06:41:02.921Z,11.32
2018-04-15T06:41:28.427Z,11.18
2018-04-15T06:41:53.850Z,11.3
2018-04-15T06:42:19.337Z,11.35
2018-04-15T06:42:44.803Z,11.3
2018-04-15T06:43:10.258Z,11.32
2018-04-15T06:43:35.735Z,11.3
2018-04-15T06:44:01.210Z,11.27
2018-04-15T06:44:26.689Z,11.29
2018-04-15T06:44:52.167Z,11.32
2018-04-15T06:45:17.678Z,11.27
2018-04-15T06:45:43.149Z,11.33
2018-04-15T06:46:41.646Z,11.29
2018-04-15T06:47:07.147Z,11.27
2018-04-15T06:47:32.623Z,11.44
2018-04-15T06:47:58.144Z,11.32
2018-04-15T06:48:23.639Z,11.33
2018-04-15T06:48:49.143Z,11.33
2018-04-15T06:49:14.626Z,11.3
2018-04-15T06:49:40.090Z,11.36
2018-04-15T06:50:05.598Z,11.33
2018-04-15T06:50:31.120Z,11.36
2018-04-15T06:50:56.580Z,11.4
2018-04-15T06:51:22.071Z,11.33
2018-04-15T06:51:47.539Z,11.36
2018-04-15T06:52:46.050Z,11.36
2018-04-15T06:53:11.539Z,11.36
2018-04-15T06:53:37.030Z,11.36
2018-04-15T06:54:02.539Z,11.41
2018-04-15T06:54:28.035Z,11.43
2018-04-15T06:54:53.522Z,11.44
2018-04-15T06:55:19.009Z,11.35
2018-04-15T06:55:44.542Z,11.41
2018-04-15T06:56:09.955Z,11.43
2018-04-15T06:57:08.434Z,11.5
2018-04-15T06:57:33.929Z,11.44
2018-04-15T06:57:59.428Z,11.47
2018-04-15T06:58:24.920Z,11.37
2018-04-15T06:58:50.411Z,11.48
2018-04-15T06:59:15.870Z,11.47
2018-04-15T06:59:41.353Z,11.59
2018-04-15T07:00:44.972Z,11.48
2018-04-15T07:01:10.476Z,11.48
2018-04-15T07:01:36.066Z,11.52
2018-04-15T07:02:01.473Z,11.54
2018-04-15T07:02:26.982Z,11.54
2018-04-15T07:02:52.456Z,11.52
2018-04-15T07:03:17.956Z,11.54
2018-04-15T07:03:43.470Z,11.5
2018-04-15T07:04:08.958Z,11.51
2018-04-15T07:04:34.478Z,11.52
2018-04-15T07:05:00.059Z,11.52
2018-04-15T07:05:25.554Z,11.59
2018-04-15T07:05:51.050Z,11.47
2018-04-15T07:06:16.558Z,11.55
2018-04-15T07:06:42.032Z,11.54
2018-04-15T07:07:07.527Z,11.55
2018-04-15T07:07:33.024Z,11.55
2018-04-15T07:07:58.519Z,11.57
2018-04-15T07:08:24.009Z,11.63
2018-04-15T07:08:49.506Z,11.65
2018-04-15T07:09:14.988Z,11.55
2018-04-15T07:09:40.537Z,11.63
2018-04-15T07:10:05.990Z,11.57
2018-04-15T07:10:31.451Z,11.54
2018-04-15T07:10:56.937Z,11.55
2018-04-15T07:11:22.461Z,11.5
2018-04-15T07:11:47.962Z,11.63
2018-04-15T07:12:13.477Z,11.57
2018-04-15T07:12:38.970Z,11.59
2018-04-15T07:13:27.259Z,11.62
2018-04-15T07:13:52.775Z,11.65
2018-04-15T07:14:18.273Z,11.63
2018-04-15T07:14:43.775Z,11.66
2018-04-15T07:15:09.280Z,11.69
2018-04-15T07:15:34.793Z,11.72
2018-04-15T07:16:00.324Z,11.65
2018-04-15T07:16:25.830Z,11.7
2018-04-15T07:16:51.317Z,11.65
2018-04-15T07:17:16.804Z,11.66
2018-04-15T07:17:42.321Z,11.66
2018-04-15T07:18:07.825Z,11.62
2018-04-15T07:18:33.286Z,11.69
2018-04-15T07:18:58.754Z,11.69
2018-04-15T07:19:24.258Z,11.68
2018-04-15T07:19:49.733Z,11.77
2018-04-15T07:20:15.219Z,11.66
2018-04-15T07:20:40.691Z,11.73
2018-04-15T07:21:06.164Z,11.75
2018-04-15T07:21:31.667Z,11.66
2018-04-15T07:21:57.169Z,11.72
2018-04-15T07:22:22.647Z,11.8
2018-04-15T07:22:48.144Z,11.68
2018-04-15T07:23:13.629Z,11.8
2018-04-15T07:23:39.109Z,11.86
2018-04-15T07:24:04.592Z,11.77
2018-04-15T07:24:30.083Z,11.78
2018-04-15T07:24:55.589Z,11.8
2018-04-15T07:25:21.133Z,11.8
2018-04-15T07:25:46.631Z,11.78
2018-04-15T07:26:12.110Z,11.84
2018-04-15T07:26:37.572Z,11.91
2018-04-15T07:27:03.068Z,11.9
2018-04-15T07:28:01.068Z,11.97
2018-04-15T07:28:26.563Z,11.95
2018-04-15T07:28:52.056Z,12.03
2018-04-15T07:29:17.565Z,11.97
2018-04-15T07:29:43.072Z,12.04
2018-04-15T07:30:08.550Z,12.02
2018-04-15T07:30:34.043Z,12.04
2018-04-15T07:30:59.535Z,11.95
2018-04-15T07:31:25.041Z,12.06
2018-04-15T07:31:50.541Z,12.04
2018-04-15T07:32:16.030Z,12.06
2018-04-15T07:32:41.517Z,12.06
2018-04-15T07:33:07.008Z,12.09
2018-04-15T07:33:32.480Z,12.12
2018-04-15T07:33:57.969Z,12.09
2018-04-15T07:34:23.450Z,12.17
2018-04-15T07:34:48.972Z,12.15
2018-04-15T07:35:14.481Z,12.13
2018-04-15T07:35:39.972Z,12.17
2018-04-15T07:36:05.478Z,12.22
2018-04-15T07:36:31.042Z,12.15
2018-04-15T07:36:56.480Z,12.15
2018-04-15T07:37:21.981Z,12.06
2018-04-15T07:37:47.471Z,12.13
2018-04-15T07:38:12.954Z,12.21
2018-04-15T07:38:38.446Z,12.2
2018-04-15T07:39:03.950Z,12.21
2018-04-15T07:39:29.431Z,12.2
2018-04-15T07:39:54.921Z,12.13
2018-04-15T07:40:20.383Z,12.17
2018-04-15T07:40:45.883Z,12.18
2018-04-15T07:41:11.383Z,12.15
2018-04-15T07:41:36.880Z,12.21
2018-04-15T07:42:02.437Z,12.28
2018-04-15T07:42:27.910Z,12.25
2018-04-15T07:42:53.417Z,12.27
2018-04-15T07:43:18.980Z,12.27
2018-04-15T07:43:44.413Z,12.29
2018-04-15T07:44:09.915Z,12.28
2018-04-15T07:44:35.408Z,12.32
2018-04-15T07:45:00.915Z,12.35
2018-04-15T07:45:26.403Z,12.35
2018-04-15T07:45:51.899Z,12.36
2018-04-15T07:46:17.412Z,12.4
2018-04-15T07:46:42.893Z,12.35
2018-04-15T07:47:08.410Z,12.42
2018-04-15T07:47:33.928Z,12.29
2018-04-15T07:47:59.476Z,12.4
2018-04-15T07:48:25.049Z,12.35
2018-04-15T07:48:50.624Z,12.4
2018-04-15T07:49:16.116Z,12.35
2018-04-15T07:49:41.620Z,12.31
2018-04-15T07:50:07.126Z,12.42
2018-04-15T07:50:32.637Z,12.36
2018-04-15T07:50:58.123Z,12.43
2018-04-15T07:51:23.637Z,12.36
2018-04-15T07:51:49.152Z,12.32
2018-04-15T07:52:14.647Z,12.39
2018-04-15T07:52:40.163Z,12.43
2018-04-15T07:53:05.657Z,12.39
2018-04-15T07:53:31.156Z,12.35
2018-04-15T07:53:56.647Z,12.43
2018-04-15T07:54:22.163Z,12.36
2018-04-15T07:54:47.657Z,12.39
2018-04-15T07:55:46.170Z,12.31
2018-04-15T07:56:11.719Z,12.42
2018-04-15T07:56:37.159Z,12.4
2018-04-15T07:57:02.669Z,12.45
2018-04-15T07:57:28.206Z,12.42
2018-04-15T07:58:26.707Z,12.45
2018-04-15T07:58:52.270Z,12.45
2018-04-15T07:59:17.724Z,12.5
2018-04-15T07:59:43.220Z,12.47
2018-04-15T08:00:08.716Z,12.53
2018-04-15T08:00:34.231Z,12.43
2018-04-15T08:00:59.725Z,12.5
2018-04-15T08:01:25.215Z,12.55
2018-04-15T08:01:50.720Z,12.57
2018-04-15T08:02:16.260Z,12.5
2018-04-15T08:02:41.688Z,12.61
2018-04-15T08:03:07.179Z,12.65
2018-04-15T08:03:32.686Z,12.61
2018-04-15T08:03:58.222Z,12.73
2018-04-15T08:04:23.741Z,12.67
2018-04-15T08:04:49.244Z,12.78
2018-04-15T08:05:14.718Z,12.8
2018-04-15T08:05:40.456Z,12.75
2018-04-15T08:06:05.907Z,12.83
2018-04-15T08:06:31.499Z,12.82
2018-04-15T08:06:57.104Z,12.91
2018-04-15T08:07:22.613Z,12.9
2018-04-15T08:07:48.113Z,12.95
2018-04-15T08:08:13.580Z,12.98
2018-04-15T08:08:39.075Z,13.03
2018-04-15T08:09:04.553Z,13.05
2018-04-15T08:09:30.046Z,13.03
2018-04-15T08:09:55.545Z,13.12
2018-04-15T08:10:21.040Z,13.13
2018-04-15T08:10:46.511Z,13.15
2018-04-15T08:11:12.154Z,13.16
2018-04-15T08:11:37.737Z,13.18
2018-04-15T08:12:03.222Z,13.27
2018-04-15T08:12:28.686Z,13.31
2018-04-15T08:12:54.175Z,13.46
2018-04-15T08:13:19.831Z,13.41
2018-04-15T08:13:45.328Z,13.41
2018-04-15T08:14:10.819Z,13.3
2018-04-15T08:14:36.346Z,13.37
2018-04-15T08:15:01.845Z,13.41
2018-04-15T08:15:27.343Z,13.42
2018-04-15T08:15:52.850Z,13.52
2018-04-15T08:16:18.341Z,13.46
2018-04-15T08:16:43.824Z,13.5
2018-04-15T08:17:09.336Z,13.56
2018-04-15T08:17:34.820Z,13.63
2018-04-15T08:18:00.362Z,13.6
2018-04-15T08:18:25.821Z,13.67
2018-04-15T08:18:51.321Z,13.74
2018-04-15T08:19:16.831Z,13.77
2018-04-15T08:19:42.344Z,13.77
2018-04-15T08:20:07.809Z,13.86
2018-04-15T08:20:33.288Z,13.92
2018-04-15T08:20:58.814Z,14
2018-04-15T08:21:24.304Z,14.1
2018-04-15T08:21:49.808Z,14.1
2018-04-15T08:22:15.301Z,14.2
2018-04-15T08:22:40.787Z,14.23
2018-04-15T08:23:06.283Z,14.3
2018-04-15T08:23:31.785Z,14.43
2018-04-15T08:23:57.263Z,14.35
2018-04-15T08:24:22.766Z,14.43
2018-04-15T08:24:48.261Z,14.47
2018-04-15T08:25:13.945Z,14.45
2018-04-15T08:26:06.884Z,14.54
2018-04-15T08:26:32.481Z,14.58
2018-04-15T08:26:57.970Z,14.53
2018-04-15T08:27:23.488Z,14.65
2018-04-15T08:27:49.025Z,14.68
2018-04-15T08:28:14.551Z,14.63
2018-04-15T08:28:40.057Z,14.69
2018-04-15T08:29:05.548Z,14.82
2018-04-15T08:30:08.633Z,14.78
2018-04-15T08:30:34.133Z,14.77
2018-04-15T08:30:59.633Z,14.82
2018-04-15T08:31:25.150Z,14.92
2018-04-15T08:31:50.652Z,14.91
2018-04-15T08:32:16.155Z,15
2018-04-15T08:32:41.649Z,14.94
2018-04-15T08:33:07.147Z,14.97
2018-04-15T08:33:32.636Z,15.09
2018-04-15T08:33:58.117Z,15
2018-04-15T08:34:23.610Z,15.09
2018-04-15T08:34:49.125Z,15.09
2018-04-15T08:35:14.625Z,15.1
2018-04-15T08:35:40.131Z,15.1
2018-04-15T08:36:05.639Z,15.11
2018-04-15T08:36:31.108Z,15.15
2018-04-15T08:36:56.590Z,15.07
2018-04-15T08:37:22.057Z,15.19
2018-04-15T08:37:47.555Z,15.17
2018-04-15T08:38:13.042Z,15.09
2018-04-15T08:38:38.557Z,15.11
2018-04-15T08:39:04.061Z,15.11
2018-04-15T08:39:29.547Z,15.1
2018-04-15T08:39:55.033Z,15.1
2018-04-15T08:40:20.530Z,15.09
2018-04-15T08:40:46.091Z,15.11
2018-04-15T08:41:11.525Z,15.07
2018-04-15T08:41:36.932Z,14.99
2018-04-15T08:42:02.597Z,15.06
2018-04-15T08:42:27.915Z,15.04
2018-04-15T08:43:21.376Z,15.07
2018-04-15T08:43:46.823Z,15.06
2018-04-15T08:44:12.311Z,15.09
2018-04-15T08:44:37.816Z,15.18
2018-04-15T08:45:03.322Z,15.06
2018-04-15T08:45:28.814Z,15.17
2018-04-15T08:45:54.318Z,15.14
2018-04-15T08:46:19.802Z,15.18
2018-04-15T08:46:45.315Z,15.28
2018-04-15T08:47:10.811Z,15.19
2018-04-15T08:47:36.306Z,15.24
2018-04-15T08:48:01.833Z,15.29
2018-04-15T08:48:27.332Z,15.24
2018-04-15T08:48:52.825Z,15.35
2018-04-15T08:49:18.327Z,15.27
2018-04-15T08:49:43.829Z,15.28
2018-04-15T08:50:09.316Z,15.31
2018-04-15T08:50:34.829Z,15.31
2018-04-15T08:51:00.328Z,15.28
2018-04-15T08:51:25.832Z,15.37
2018-04-15T08:51:51.315Z,15.42
2018-04-15T08:52:16.801Z,15.39
2018-04-15T08:52:42.334Z,15.39
2018-04-15T08:53:07.812Z,15.36
2018-04-15T08:53:33.360Z,15.37
2018-04-15T08:53:58.831Z,15.39
2018-04-15T08:54:24.325Z,15.33
2018-04-15T08:54:49.840Z,15.39
2018-04-15T08:55:15.336Z,15.39
2018-04-15T08:55:40.822Z,15.37
2018-04-15T08:56:06.332Z,15.39
2018-04-15T08:56:31.819Z,15.42
2018-04-15T08:56:57.295Z,15.43
2018-04-15T08:57:22.810Z,15.36
2018-04-15T08:57:48.289Z,15.4
2018-04-15T08:58:13.785Z,15.39
2018-04-15T08:58:39.274Z,15.46
2018-04-15T08:59:04.757Z,15.39
2018-04-15T08:59:30.251Z,15.36
2018-04-15T08:59:55.748Z,15.39
2018-04-15T09:00:21.233Z,15.37
2018-04-15T09:00:46.726Z,15.4
2018-04-15T09:01:12.196Z,15.42
2018-04-15T09:01:37.682Z,15.43
2018-04-15T09:02:03.162Z,15.28
2018-04-15T09:02:28.638Z,15.28
2018-04-15T09:02:54.116Z,15.35
2018-04-15T09:03:19.671Z,15.28
2018-04-15T09:03:45.172Z,15.21
2018-04-15T09:04:10.645Z,15.19
2018-04-15T09:04:36.122Z,15.22
2018-04-15T09:05:01.642Z,15.19
2018-04-15T09:05:27.145Z,15.29
2018-04-15T09:05:52.645Z,15.19
2018-04-15T09:06:18.116Z,15.25
2018-04-15T09:06:43.596Z,15.18
2018-04-15T09:07:09.131Z,15.24
2018-04-15T09:07:34.607Z,15.21
2018-04-15T09:08:00.117Z,15.24
2018-04-15T09:08:25.585Z,15.21
2018-04-15T09:08:51.059Z,15.28
2018-04-15T09:09:16.540Z,15.28
2018-04-15T09:09:42.046Z,15.31
2018-04-15T09:10:07.503Z,15.29
2018-04-15T09:10:33.014Z,15.42
2018-04-15T09:10:58.528Z,15.47
2018-04-15T09:11:24.030Z,15.51
2018-04-15T09:11:49.509Z,15.57
2018-04-15T09:12:15.003Z,15.62
2018-04-15T09:12:40.508Z,15.65
2018-04-15T09:13:06.117Z,15.76
2018-04-15T09:13:31.551Z,15.8
2018-04-15T09:13:57.047Z,15.84
2018-04-15T09:14:22.529Z,15.88
2018-04-15T09:14:48.026Z,15.88
2018-04-15T09:15:13.526Z,15.91
2018-04-15T09:15:39.023Z,15.9
2018-04-15T09:16:04.500Z,15.9
2018-04-15T09:16:29.987Z,15.8
2018-04-15T09:16:55.482Z,15.94
2018-04-15T09:17:20.960Z,15.88
2018-04-15T09:17:46.459Z,15.88
2018-04-15T09:18:12.006Z,15.86
2018-04-15T09:18:37.489Z,15.91
2018-04-15T09:19:03.022Z,15.91
2018-04-15T09:19:28.537Z,15.88
2018-04-15T09:19:54.027Z,15.9
2018-04-15T09:20:19.523Z,15.94
2018-04-15T09:20:45.022Z,15.94
2018-04-15T09:21:10.523Z,15.92
2018-04-15T09:21:36.021Z,15.91
2018-04-15T09:22:01.516Z,15.86
2018-04-15T09:22:27.017Z,15.92
2018-04-15T09:22:52.499Z,15.86
2018-04-15T09:23:18.058Z,15.92
2018-04-15T09:23:43.514Z,15.92
2018-04-15T09:24:09.002Z,15.91
2018-04-15T09:24:34.507Z,15.91
2018-04-15T09:25:00.024Z,15.92
2018-04-15T09:25:25.531Z,15.91
2018-04-15T09:25:51.028Z,15.86
2018-04-15T09:26:16.516Z,15.94
2018-04-15T09:26:42.023Z,15.94
2018-04-15T09:27:07.513Z,16.02
2018-04-15T09:27:32.992Z,16.04
2018-04-15T09:27:58.476Z,16.01
2018-04-15T09:28:23.971Z,16.15
2018-04-15T09:28:49.466Z,16.2
2018-04-15T09:29:14.960Z,16.21
2018-04-15T09:29:40.447Z,16.35
2018-04-15T09:30:05.932Z,16.36
2018-04-15T09:30:31.442Z,16.5
2018-04-15T09:30:56.956Z,16.51
2018-04-15T09:31:22.456Z,16.6
2018-04-15T09:31:47.922Z,16.66
2018-04-15T09:32:13.431Z,16.6
2018-04-15T09:32:38.931Z,16.69
2018-04-15T09:33:04.446Z,16.71
2018-04-15T09:33:29.921Z,16.68
2018-04-15T09:33:55.417Z,16.69
2018-04-15T09:34:20.904Z,16.72
2018-04-15T09:34:46.383Z,16.69
2018-04-15T09:35:11.881Z,16.57
2018-04-15T09:35:37.393Z,16.58
2018-04-15T09:36:02.842Z,16.64
2018-04-15T09:36:28.345Z,16.47
2018-04-15T09:36:53.829Z,16.41
2018-04-15T09:37:19.321Z,16.33
2018-04-15T09:37:44.819Z,16.36
2018-04-15T09:38:10.304Z,16.24
2018-04-15T09:38:35.790Z,16.21
2018-04-15T09:39:01.272Z,16.17
2018-04-15T09:39:26.750Z,16.15
2018-04-15T09:39:52.223Z,16.2
2018-04-15T09:40:17.720Z,16.13
2018-04-15T09:40:43.232Z,16.21
2018-04-15T09:41:08.709Z,16.1
2018-04-15T09:41:34.201Z,16.16
2018-04-15T09:41:59.698Z,16.16
2018-04-15T09:42:25.228Z,16.05
2018-04-15T09:42:50.711Z,16.16
2018-04-15T09:43:16.218Z,16.16
2018-04-15T09:43:41.723Z,16.23
2018-04-15T09:44:07.234Z,16.21
2018-04-15T09:44:32.740Z,16.38
2018-04-15T09:44:58.224Z,16.36
2018-04-15T09:45:23.712Z,16.33
2018-04-15T09:45:49.192Z,16.33
2018-04-15T09:46:14.676Z,16.35
2018-04-15T09:46:40.164Z,16.46
2018-04-15T09:47:05.669Z,16.46
2018-04-15T09:47:31.173Z,16.43
2018-04-15T09:47:56.678Z,16.58
2018-04-15T09:48:22.156Z,16.61
2018-04-15T09:48:47.662Z,16.5